Ilgaz — TCHQ — position and weather

sailwx.info

Track history (hours):
 
Tides and Currents Weather Stations Pressure Air Temp Water Temp Dewpoint Dewpoint Depression Visibility Wind Speed Wind Dir Waves Ship Positions

Ilgaz

Last reported at 2014-Oct-16 14:24 UTC. Time now 2014-Oct-22 22:28 UTC.
Position N 36°24' E 028°22'.

Length 124 m; draft 8 m.

Type: Cargo ship. MMSI: 271000215.

Date/timePositionNaut miles runAvg speedWind from/ knotsBaromVisibWave heightAir tempDewpointWater temp
2014-Oct-16 14:24N 36°24' E 028°22'8 9.0
2014-Oct-16 13:33N 36°29' E 028°15'9 8.4
2014-Oct-16 12:26N 36°29' E 028°03'12 8.3
2014-Oct-16 11:03N 36°30' E 027°49'25 8.5
2014-Oct-16 08:04N 36°40' E 027°20'4 8.2
2014-Oct-16 07:33N 36°45' E 027°21'10 8.3
2014-Oct-16 06:22N 36°54' E 027°22'7 7.9
2014-Oct-16 05:27N 36°57' E 027°13'11 8.3
2014-Oct-16 04:09N 37°03' E 027°02'5 8.6
2014-Oct-16 03:33N 37°08' E 026°59'9 8.8
2014-Oct-16 02:33N 37°16' E 026°54'9 8.7
2014-Oct-16 01:32N 37°24' E 026°49'8 8.5
2014-Oct-16 00:33N 37°31' E 026°44'8 8.1
2014-Oct-15 23:33N 37°37' E 026°37'8 7.8
2014-Oct-15 22:33N 37°43' E 026°31'8 8.1
2014-Oct-15 21:30N 37°51' E 026°27'80 8.1
2014-Oct-15 11:33N 39°06' E 025°51'8 7.6
2014-Oct-15 10:27N 39°14' E 025°47'16 8.7
2014-Oct-15 08:33N 39°29' E 025°56'70 8.6
2014-Oct-15 00:31N 40°27' E 026°47'9 8.9
2014-Oct-14 23:33N 40°31' E 026°57'125 3.2
2014-Oct-13 08:33N 41°28' E 029°25'264 8.8
2014-Oct-12 02:33N 43°59' E 034°18'9 9.2
2014-Oct-12 01:33N 44°05' E 034°28'9 9.4
2014-Oct-12 00:33N 44°10' E 034°39'1010.1
2014-Oct-11 23:33N 44°15' E 034°51'1010.3
2014-Oct-11 22:33N 44°21' E 035°03'1010.0
2014-Oct-11 21:33N 44°27' E 035°14'1110.1
2014-Oct-11 20:28N 44°34' E 035°27'9 9.9
2014-Oct-11 19:32N 44°39' E 035°37'10 9.4
2014-Oct-11 18:28N 44°45' E 035°49'31 9.3
2014-Oct-11 15:08N 44°58' E 036°28'7 8.9
2014-Oct-11 14:18N 45°06' E 036°30'  
Track history (hours):
 
Tides and Currents Weather Stations Pressure Air Temp Water Temp Dewpoint Dewpoint Depression Visibility Wind Speed Wind Dir Waves Ship Positions

Ilgaz

Last reported at 2014-Oct-16 14:24 UTC. Time now 2014-Oct-22 22:28 UTC.
Position N 36°24' E 028°22'.

Length 124 m; draft 8 m.

Type: Cargo ship. MMSI: 271000215.

Date/timePositionNaut miles runAvg speedWind from/ knotsBaromVisibWave heightAir tempDewpointWater temp
2014-Oct-16 14:24N 36°24' E 028°22'8 9.0
2014-Oct-16 13:33N 36°29' E 028°15'9 8.4
2014-Oct-16 12:26N 36°29' E 028°03'12 8.3
2014-Oct-16 11:03N 36°30' E 027°49'25 8.5
2014-Oct-16 08:04N 36°40' E 027°20'4 8.2
2014-Oct-16 07:33N 36°45' E 027°21'10 8.3
2014-Oct-16 06:22N 36°54' E 027°22'7 7.9
2014-Oct-16 05:27N 36°57' E 027°13'11 8.3
2014-Oct-16 04:09N 37°03' E 027°02'5 8.6
2014-Oct-16 03:33N 37°08' E 026°59'9 8.8
2014-Oct-16 02:33N 37°16' E 026°54'9 8.7
2014-Oct-16 01:32N 37°24' E 026°49'8 8.5
2014-Oct-16 00:33N 37°31' E 026°44'8 8.1
2014-Oct-15 23:33N 37°37' E 026°37'8 7.8
2014-Oct-15 22:33N 37°43' E 026°31'8 8.1
2014-Oct-15 21:30N 37°51' E 026°27'80 8.1
2014-Oct-15 11:33N 39°06' E 025°51'8 7.6
2014-Oct-15 10:27N 39°14' E 025°47'16 8.7
2014-Oct-15 08:33N 39°29' E 025°56'70 8.6
2014-Oct-15 00:31N 40°27' E 026°47'9 8.9
2014-Oct-14 23:33N 40°31' E 026°57'125 3.2
2014-Oct-13 08:33N 41°28' E 029°25'264 8.8
2014-Oct-12 02:33N 43°59' E 034°18'9 9.2
2014-Oct-12 01:33N 44°05' E 034°28'9 9.4
2014-Oct-12 00:33N 44°10' E 034°39'1010.1
2014-Oct-11 23:33N 44°15' E 034°51'1010.3
2014-Oct-11 22:33N 44°21' E 035°03'1010.0
2014-Oct-11 21:33N 44°27' E 035°14'1110.1
2014-Oct-11 20:28N 44°34' E 035°27'9 9.9
2014-Oct-11 19:32N 44°39' E 035°37'10 9.4
2014-Oct-11 18:28N 44°45' E 035°49'31 9.3
2014-Oct-11 15:08N 44°58' E 036°28'7 8.9
2014-Oct-11 14:18N 45°06' E 036°30'  

Dump ship's entire track history